• Join FlightAware (Why Join?)
  • Login
  • US Flag 
04:06AM EST


 

Airport Tracker/Info


-or-


 

Live Flight TrackerFlight Track Log ✈ EJA583 ✈ 18-Jul-2013 ✈ KTEX - KUES

Flight Track Log - Related Links

Times and Time Zones

All times are in EDT time to prevent confusion due to time zone crossing. See the EJA583 flight status page for this flight to view local times or setup timezone preferences in your user account.

Time Position Orientation Groundspeed Altitude Reporting Facility
EDT Latitude Longitude Course Direction KTS MPH feet Rate Location/Type
11:19AM 37.9833 -108.1144 280° West 241 277 15,600  Level Denver Center
11:20AM 38.0200 -108.1961 300° West 270 311 17,800 1,980 Climbing Denver Center
11:21AM 38.0772 -108.1311 42° Northeast 294 338 19,800 1,740 Climbing Denver Center
11:22AM 38.1122 -108.0358 65° Northeast 306 352 21,400 1,440 Climbing Denver Center
11:23AM 38.1564 -107.9150 65° Northeast 336 387 22,800 900 Climbing Denver Center
11:24AM 38.2025 -107.2258 65° Northeast  Level Estimated
11:24AM 38.1967 -107.7997 66° East 369 425 23,300  Level Denver Center
11:25AM 38.2444 -107.6628 66° East 379 436 25,400 1,260 Climbing Denver Center
11:26AM 38.2850 -107.5500 65° Northeast 370 426 26,000 480 Climbing Denver Center
11:27AM 38.3294 -107.4250 66° East 396 456 26,500 1,140 Climbing Denver Center
11:29AM 38.3733 -107.2819 69° East 392 451 28,400 1,500 Climbing Denver Center
11:30AM 38.3850 -107.1414 84° East 379 436 29,600 1,140 Climbing Denver Center
11:31AM 38.3989 -107.0083 82° East 379 436 30,800 1,080 Climbing Denver Center
11:32AM 38.4122 -106.8761 83° East 377 434 31,900 1,080 Climbing Denver Center
11:33AM 38.4258 -106.7467 82° East 372 428 33,100 1,080 Climbing Denver Center
11:34AM 38.4664 -106.6242 67° East 376 433 34,200 900 Climbing Denver Center
11:35AM 38.5086 -106.5069 65° Northeast 367 422 35,000 960 Climbing Denver Center
11:36AM 38.5611 -106.3561 66° East 384 442 36,200 960 Climbing Denver Center
11:37AM 38.6031 -106.2350 66° East 378 435 37,000 360 Climbing Denver Center
11:38AM 38.6461 -106.1064 67° East 385 443 37,000  Level Denver Center
11:39AM 38.6914 -105.9769 66° East 398 458 37,000 360 Level Denver Center
11:40AM 38.7347 -105.8464 67° East 399 459 37,800 1,140 Climbing Denver Center
11:41AM 38.7867 -105.6967 66° East 384 442 39,400 1,440 Climbing Denver Center
11:42AM 38.8281 -105.5753 66° East 375 432 40,800 720 Climbing Denver Center
11:43AM 38.8681 -105.4550 67° East 369 425 41,000 60 Climbing Denver Center
11:44AM 38.9108 -105.3278 67° East 384 442 41,000  Level Denver Center
11:45AM 38.9539 -105.1969 67° East 395 455 41,000  Level Denver Center
11:46AM 38.9958 -105.0700 67° East 392 451 41,000  Level Denver Center
11:47AM 39.0461 -104.9186 67° East 387 445 41,000  Level Denver Center
11:48AM 39.0867 -104.7933 67° East 383 441 41,000  Level Denver Center
11:49AM 39.1278 -104.6700 67° East 379 436 41,000  Level Denver Center
11:50AM 39.1686 -104.5450 67° East 381 438 41,000  Level Denver Center
11:51AM 39.2172 -104.3953 67° East 382 440 41,000  Level Denver Center
11:52AM 39.2564 -104.2719 68° East 377 434 41,000  Level Denver Center
11:53AM 39.2958 -104.1492 67° East 373 429 41,000  Level Denver Center
11:55AM 39.3342 -104.0281 68° East 368 423 41,000  Level Denver Center
11:56AM 39.3808 -103.8817 68° East 369 425 41,000  Level Denver Center
11:57AM 39.4122 -103.7831 68° East 372 428 41,000  Level Denver Center
11:58AM 39.4672 -103.6131 67° East 368 423 41,000  Level Denver Center
11:59AM 39.5050 -103.4908 68° East 369 425 41,000  Level Denver Center
12:00PM 39.5442 -103.3689 67° East 367 422 41,000  Level Denver Center
12:01PM 39.5731 -103.2697 69° East 369 425 41,000  Level Denver Center
12:02PM 39.6194 -103.1233 68° East 366 421 41,000  Level Denver Center
12:03PM 39.6642 -102.9761 68° East 368 423 41,000  Level Denver Center
12:04PM 39.7022 -102.8539 68° East 368 423 41,000  Level Denver Center
12:05PM 39.7403 -102.7303 68° East 369 425 41,000  Level Denver Center
12:06PM 39.7792 -102.6025 68° East 368 423 41,000  Level Denver Center
12:07PM 39.8200 -102.4644 69° East 368 423 41,000  Level Denver Center
12:08PM 39.8572 -102.3469 68° East 368 423 41,000  Level Denver Center
12:09PM 39.8919 -102.2272 69° East 370 426 41,000  Level Denver Center
12:10PM 39.9328 -102.0883 69° East 370 426 41,000  Level Denver Center
12:11PM 39.9692 -101.9697 68° East 369 425 41,000  Level Denver Center
12:12PM 40.0100 -101.8292 69° East 370 426 41,000  Level Denver Center
12:13PM 40.0444 -101.7100 69° East 370 426 41,000  Level Denver Center
12:14PM 40.0864 -101.5703 69° East 370 426 41,000  Level Denver Center
12:15PM 40.1214 -101.4481 69° East 373 429 41,000  Level Denver Center
12:16PM 40.1617 -101.3064 70° East 373 429 41,000  Level Denver Center
12:17PM 40.1978 -101.1856 69° East 373 429 41,000  Level Denver Center
12:18PM 40.2375 -101.0444 70° East 372 428 41,000  Level Denver Center
12:19PM 40.2717 -100.9231 70° East 372 428 41,000  Level Denver Center
12:20PM 40.3114 -100.7817 70° East 372 428 41,000  Level Denver Center
12:21PM 40.3458 -100.6606 70° East 373 429 41,000  Level Denver Center
12:23PM 40.3858 -100.5178 70° East 375 432 41,000  Level Denver Center
12:24PM 40.4200 -100.3947 70° East 377 434 41,000  Level Denver Center
12:25PM 40.4594 -100.2550 70° East 370 426 41,000  Level Denver Center
12:26PM 40.4928 -100.1319 70° East 372 428 41,000  Level Denver Center
12:27PM 40.5325 -99.9892 70° East 374 430 41,000  Level Denver Center
12:28PM 40.5664 -99.8669 70° East 374 430 41,000  Level Denver Center
12:29PM 40.6053 -99.7239 70° East 373 429 41,000  Level Denver Center
12:30PM 40.6386 -99.6008 70° East 374 430 41,000  Level Denver Center
12:30PM 40.6600 -99.5292 69° East 375 432 41,000  Level Minneapolis Center
12:31PM 40.6950 -99.4000 70° East 375 432 41,000  Level Minneapolis Center
12:32PM 40.7356 -99.2442 71° East 375 432 41,000  Level Minneapolis Center
12:33PM 40.7664 -99.1131 73° East 375 432 41,000  Level Minneapolis Center
12:35PM 40.8017 -98.9844 70° East 374 430 41,000  Level Minneapolis Center
12:36PM 40.8364 -98.8567 70° East 372 428 41,000  Level Minneapolis Center
12:37PM 40.8692 -98.7261 72° East 373 429 41,000  Level Minneapolis Center
12:38PM 40.9042 -98.5936 71° East 377 434 41,000  Level Minneapolis Center
12:39PM 40.9456 -98.4358 71° East 379 436 41,000  Level Minneapolis Center
12:40PM 40.9719 -98.3311 72° East 378 435 41,000  Level Minneapolis Center
12:41PM 41.0133 -98.1736 71° East 377 434 41,000  Level Minneapolis Center
12:42PM 41.0469 -98.0397 72° East 380 437 41,000  Level Minneapolis Center
12:43PM 41.0794 -97.9081 72° East 379 436 41,000  Level Minneapolis Center
12:44PM 41.1147 -97.7772 70° East 378 435 41,000  Level Minneapolis Center
12:45PM 41.1539 -97.6181 72° East 378 435 41,000  Level Minneapolis Center
12:46PM 41.1869 -97.4850 72° East 379 436 41,000  Level Minneapolis Center
12:47PM 41.2189 -97.3517 72° East 379 436 41,000  Level Minneapolis Center
12:48PM 41.2519 -97.2200 71° East 377 434 41,000  Level Minneapolis Center
12:49PM 41.2842 -97.0864 72° East 378 435 41,000  Level Minneapolis Center
12:50PM 41.3164 -96.9531 72° East 379 436 41,000  Level Minneapolis Center
12:51PM 41.3486 -96.8197 72° East 378 435 41,000  Level Minneapolis Center
12:52PM 41.3875 -96.6581 72° East 381 438 41,000  Level Minneapolis Center
12:53PM 41.4203 -96.5236 72° East 381 438 41,000  Level Minneapolis Center
12:54PM 41.4522 -96.3881 73° East 380 437 41,000  Level Minneapolis Center
12:55PM 41.4861 -96.2442 73° East 379 436 41,000  Level Minneapolis Center
12:56PM 41.5161 -96.1083 74° East 385 443 41,000  Level Minneapolis Center
12:57PM 41.5472 -95.9756 73° East 381 438 41,000  Level Minneapolis Center
12:59PM 41.5797 -95.8375 72° East 384 442 41,000  Level Minneapolis Center
01:00PM 41.6225 -95.6517 73° East 382 440 41,000  Level Minneapolis Center
01:01PM 41.6542 -95.5111 73° East 381 438 41,000  Level Minneapolis Center
01:02PM 41.6847 -95.3767 73° East 380 437 41,000  Level Minneapolis Center
01:03PM 41.7156 -95.2406 73° East 380 437 41,000  Level Minneapolis Center
01:04PM 41.7453 -95.1047 74° East 381 438 41,000  Level Minneapolis Center
01:05PM 41.7767 -94.9678 73° East 383 441 41,000  Level Minneapolis Center
01:06PM 41.8067 -94.8303 74° East 384 442 41,000  Level Minneapolis Center
01:07PM 41.8417 -94.6669 74° East 380 437 41,000  Level Minneapolis Center
01:08PM 41.8719 -94.5286 74° East 386 444 41,000  Level Minneapolis Center
01:09PM 41.9017 -94.3914 74° East 383 441 41,000  Level Minneapolis Center
01:10PM 41.9322 -94.2544 73° East 382 440 41,000  Level Minneapolis Center
01:11PM 41.9603 -94.1169 75° East 383 441 41,000  Level Minneapolis Center
01:12PM 41.9897 -93.9792 74° East 383 441 41,000  Level Minneapolis Center
01:13PM 42.0181 -93.8428 74° East 384 442 41,000  Level Minneapolis Center
01:14PM 42.0211 -93.6739 89° East 385 443 41,000  Level Minneapolis Center
01:15PM 42.0394 -93.5044 82° East 386 444 41,000  Level Minneapolis Center
01:16PM 42.0597 -93.3639 79° East 387 445 41,000  Level Minneapolis Center
01:17PM 42.0800 -93.2228 79° East 387 445 41,000 -60 Level Minneapolis Center
01:18PM 42.1011 -93.0514 81° East 391 450 40,900 -660 Descending Minneapolis Center
01:19PM 42.1200 -92.9083 80° East 391 450 39,700 -1,200 Descending Minneapolis Center
01:20PM 42.1403 -92.7625 79° East 398 458 38,500 -1,200 Descending Minneapolis Center
01:21PM 42.1589 -92.6167 80° East 400 460 37,300 -1,200 Descending Minneapolis Center
01:22PM 42.1697 -92.5286 81° East 397 457 36,600 -1,380 Descending Chicago Center
01:23PM 42.1922 -92.3542 80° East 399 459 35,100 -1,320 Descending Chicago Center
01:24PM 42.2111 -92.2072 80° East 401 461 33,900 -1,020 Descending Chicago Center
01:25PM 42.2297 -92.0600 80° East 403 464 33,000 -780 Descending Chicago Center
01:26PM 42.2483 -91.9064 81° East 416 479 32,300 -840 Descending Chicago Center
01:27PM 42.2711 -91.7211 81° East 423 487 31,300 -660 Descending Chicago Center
01:28PM 42.2900 -91.5653 81° East 427 491 31,000 -180 Descending Chicago Center
01:29PM 42.3092 -91.4075 81° East 432 497 31,000  Level Chicago Center
01:30PM 42.3267 -91.2533 81° East 426 490 31,000  Level Chicago Center
01:31PM 42.3481 -91.0675 81° East 424 488 31,000 -540 Level Chicago Center
01:32PM 42.3664 -90.9131 81° East 422 486 30,000 -960 Descending Chicago Center
01:33PM 42.3836 -90.7583 81° East 423 487 29,100 -540 Descending Chicago Center
01:35PM 42.4017 -90.6000 81° East 429 494 29,000 -60 Descending Chicago Center
01:36PM 42.4186 -90.4436 82° East 427 491 29,000 -540 Level Chicago Center
01:37PM 42.4389 -90.2567 82° East 423 487 27,900 -480 Descending Chicago Center
01:38PM 42.4550 -90.1047 82° East 414 476 28,000  Climbing Chicago Center
01:39PM 42.4708 -89.9475 82° East 423 487 28,000  Level Chicago Center
01:40PM 42.4894 -89.7817 81° East 428 493 28,000  Level Chicago Center
01:41PM 42.5061 -89.6189 82° East 433 498 28,000 -840 Level Chicago Center
01:42PM 42.5250 -89.4306 82° East 433 498 26,300 -2,040 Descending Chicago Center
01:43PM 42.5419 -89.2639 82° East 442 509 23,900 -2,280 Descending Chicago Center
01:44PM 42.5586 -89.0981 82° East 446 513 21,600 -2,280 Descending Chicago Center
01:45PM 42.5881 -88.9425 76° East 424 488 19,300 -2,340 Descending Chicago Center
01:46PM 42.6197 -88.7675 76° East 413 475 16,800 -2,460 Descending Chicago Center
01:47PM 42.6464 -88.6192 76° East 407 468 14,300 -2,400 Descending Chicago Center
01:48PM 42.6692 -88.4775 78° East 385 443 11,800 -2,220 Descending Chicago Center
01:49PM 42.6989 -88.3575 71° East 344 396 9,700 -2,040 Descending Chicago Center
01:50PM 42.7706 -88.3219 20° North 284 327 7,700 -2,280 Descending Chicago Center
01:51PM 42.8486 -88.2664 28° Northeast 273 314 5,000 -2,280 Descending Chicago Center
01:52PM 42.9117 -88.2161 30° Northeast 267 307 3,100 -1,200 Descending Chicago Center
01:53PM 42.9644 -88.1861 23° Northeast 232 267 2,600 -540 Descending Chicago Center
01:54PM 43.0119 -88.1700 14° North 195 224 2,100 -540 Descending Chicago Center
01:55PM 43.0358 -88.1994 318° Northwest 148 170 1,500 -600 Descending Chicago Center
01:57PM 43.0333 -88.2333 North  Level FlightAware Approximate
02:04PM 43.0410 -88.2371 North  Level Estimated